createdAt,value
2023-03-17T00:00:43.751Z,1.60
2023-03-17T00:03:25.892Z,1.20
2023-03-17T00:05:59.032Z,1.27
2023-03-17T00:08:28.738Z,1.40
2023-03-17T00:10:56.448Z,1.50
2023-03-17T00:13:24.162Z,1.63
2023-03-17T00:15:56.209Z,2.53
2023-03-17T00:18:24.191Z,2.00
2023-03-17T00:20:52.696Z,1.60
2023-03-17T00:23:22.449Z,1.60
2023-03-17T00:25:50.455Z,1.60
2023-03-17T00:28:24.008Z,1.42
2023-03-17T00:31:01.260Z,1.45
2023-03-17T00:33:33.456Z,1.25
2023-03-17T00:36:01.590Z,1.60
2023-03-17T00:38:29.910Z,1.88
2023-03-17T00:40:58.432Z,2.20
2023-03-17T00:43:25.755Z,1.67
2023-03-17T00:45:53.041Z,1.85
2023-03-17T00:48:22.305Z,1.20
2023-03-17T00:50:50.726Z,1.60
2023-03-17T00:53:20.715Z,1.48
2023-03-17T00:55:49.124Z,1.98
2023-03-17T00:58:29.346Z,1.85
2023-03-17T01:00:56.796Z,1.48
2023-03-17T01:03:25.080Z,1.70
2023-03-17T01:06:55.980Z,1.73
2023-03-17T01:09:26.588Z,1.80
2023-03-17T01:11:55.308Z,1.60
2023-03-17T01:14:22.939Z,2.13
2023-03-17T01:16:50.899Z,1.58
2023-03-17T01:19:18.199Z,2.10
2023-03-17T01:21:46.664Z,2.00
2023-03-17T01:24:14.746Z,1.88
2023-03-17T01:26:41.920Z,1.30
2023-03-17T01:29:09.133Z,1.25
2023-03-17T01:31:36.607Z,1.73
2023-03-17T01:40:57.125Z,2.17
2023-03-17T01:44:03.422Z,1.75
2023-03-17T01:51:20.409Z,1.40
2023-03-17T01:53:53.020Z,1.73
2023-03-17T01:56:21.163Z,1.63
2023-03-17T02:02:12.662Z,1.60
2023-03-17T02:04:43.110Z,1.40
2023-03-17T02:07:11.739Z,1.52
2023-03-17T02:09:42.785Z,1.55
2023-03-17T02:12:12.439Z,1.60
2023-03-17T02:14:40.660Z,1.55
2023-03-17T02:17:09.474Z,1.80
2023-03-17T02:19:40.683Z,1.70
2023-03-17T02:22:13.457Z,1.65
2023-03-17T02:24:50.093Z,1.48
2023-03-17T02:27:23.901Z,1.60
2023-03-17T02:29:54.394Z,2.13
2023-03-17T02:32:23.232Z,1.50
2023-03-17T02:34:52.294Z,1.48
2023-03-17T02:37:22.526Z,2.10
2023-03-17T02:39:53.702Z,1.58
2023-03-17T02:42:23.258Z,1.77
2023-03-17T02:44:51.154Z,2.05
2023-03-17T02:47:20.595Z,2.15
2023-03-17T02:49:50.416Z,2.20
2023-03-17T02:52:19.668Z,2.00
2023-03-17T02:54:54.620Z,2.15
2023-03-17T02:57:31.028Z,1.95
2023-03-17T02:59:59.492Z,1.60
2023-03-17T03:02:27.940Z,2.05
2023-03-17T03:04:56.684Z,1.50
2023-03-17T03:07:24.604Z,1.30
2023-03-17T03:09:52.710Z,1.50
2023-03-17T03:12:20.763Z,1.73
2023-03-17T03:14:50.141Z,2.03
2023-03-17T03:17:18.994Z,1.58
2023-03-17T03:19:47.016Z,1.63
2023-03-17T03:22:14.687Z,1.27
2023-03-17T03:24:43.057Z,1.70
2023-03-17T03:27:11.339Z,2.10
2023-03-17T03:29:39.279Z,1.95
2023-03-17T03:32:08.135Z,1.90
2023-03-17T03:34:36.392Z,1.90
2023-03-17T03:37:05.559Z,1.60
2023-03-17T03:39:37.760Z,1.60
2023-03-17T03:42:08.922Z,2.05
2023-03-17T03:44:41.116Z,1.42
2023-03-17T03:47:10.158Z,2.08
2023-03-17T03:49:39.006Z,1.85
2023-03-17T03:52:08.012Z,1.98
2023-03-17T03:54:38.526Z,1.63
2023-03-17T03:57:09.055Z,2.28
2023-03-17T03:59:39.255Z,1.77
2023-03-17T04:02:09.721Z,1.55
2023-03-17T04:04:38.940Z,1.40
2023-03-17T04:07:08.321Z,2.03
2023-03-17T04:09:38.372Z,2.05
2023-03-17T04:12:11.181Z,1.63
2023-03-17T04:14:47.434Z,1.45
2023-03-17T04:17:17.160Z,1.40
2023-03-17T04:19:47.746Z,1.70
2023-03-17T04:22:16.163Z,1.88
2023-03-17T04:24:44.762Z,2.10
2023-03-17T04:27:16.093Z,2.10
2023-03-17T04:29:44.557Z,1.65
2023-03-17T04:32:15.103Z,1.58
2023-03-17T04:34:43.238Z,1.88
2023-03-17T04:37:11.432Z,1.90
2023-03-17T04:39:38.868Z,2.55
2023-03-17T04:42:06.897Z,2.10
2023-03-17T04:44:34.206Z,2.03
2023-03-17T04:47:01.566Z,1.73
2023-03-17T04:49:28.895Z,1.95
2023-03-17T04:52:02.416Z,1.90
2023-03-17T04:54:30.941Z,1.70
2023-03-17T04:56:59.328Z,1.65
2023-03-17T04:59:28.421Z,1.73
2023-03-17T05:01:59.201Z,1.60
2023-03-17T05:04:31.759Z,1.73
2023-03-17T05:07:00.132Z,1.83
2023-03-17T05:09:28.865Z,1.42
2023-03-17T05:11:56.393Z,1.85
2023-03-17T05:14:28.169Z,2.08
2023-03-17T05:17:00.193Z,1.92
2023-03-17T05:22:01.839Z,1.77
2023-03-17T05:24:29.086Z,1.80
2023-03-17T05:26:56.233Z,1.67
2023-03-17T05:29:26.913Z,1.92
2023-03-17T05:31:54.175Z,2.15
2023-03-17T05:34:21.542Z,1.75
2023-03-17T05:36:49.035Z,2.97
2023-03-17T05:39:16.833Z,1.60
2023-03-17T05:41:44.275Z,2.30
2023-03-17T05:44:11.627Z,2.40
2023-03-17T05:46:38.761Z,1.50
2023-03-17T05:49:06.333Z,1.63
2023-03-17T05:51:35.743Z,1.70
2023-03-17T05:54:04.823Z,1.80
2023-03-17T05:56:34.013Z,2.55
2023-03-17T05:59:02.153Z,1.85
2023-03-17T06:01:32.807Z,2.00
2023-03-17T06:04:02.043Z,1.65
2023-03-17T06:06:33.062Z,1.85
2023-03-17T06:09:07.993Z,2.15
2023-03-17T06:11:35.522Z,1.92
2023-03-17T06:14:03.189Z,1.80
2023-03-17T06:16:34.604Z,2.92
2023-03-17T06:19:02.577Z,2.22
2023-03-17T06:21:30.413Z,2.20
2023-03-17T06:23:58.219Z,2.25
2023-03-17T06:26:26.622Z,1.98
2023-03-17T06:28:56.894Z,2.13
2023-03-17T06:31:24.382Z,1.60
2023-03-17T06:33:51.771Z,1.70
2023-03-17T06:36:19.024Z,1.88
2023-03-17T06:38:46.386Z,2.45
2023-03-17T06:41:14.028Z,1.95
2023-03-17T06:43:41.537Z,1.70
2023-03-17T06:46:08.896Z,2.50
2023-03-17T06:48:36.347Z,2.00
2023-03-17T06:51:03.519Z,2.40
2023-03-17T06:53:30.746Z,2.72
2023-03-17T06:55:58.354Z,2.58
2023-03-17T06:58:25.632Z,1.92
2023-03-17T07:00:54.337Z,1.63
2023-03-17T07:03:41.586Z,1.98
2023-03-17T07:06:09.125Z,1.73
2023-03-17T07:08:36.790Z,2.10
2023-03-17T07:11:04.884Z,2.13
2023-03-17T07:13:35.791Z,2.50
2023-03-17T07:16:04.152Z,2.58
2023-03-17T07:18:34.603Z,1.65
2023-03-17T07:21:02.492Z,1.92
2023-03-17T07:23:30.570Z,1.83
2023-03-17T07:25:57.947Z,2.63
2023-03-17T07:28:25.159Z,2.30
2023-03-17T07:30:52.749Z,1.98
2023-03-17T07:33:23.802Z,2.10
2023-03-17T07:35:52.276Z,1.90
2023-03-17T07:38:20.189Z,1.55
2023-03-17T07:40:49.320Z,2.50
2023-03-17T07:43:18.012Z,2.80
2023-03-17T07:45:47.016Z,2.00
2023-03-17T07:48:14.889Z,1.83
2023-03-17T07:50:42.873Z,2.13
2023-03-17T07:53:10.340Z,2.85
2023-03-17T07:55:39.145Z,2.10
2023-03-17T07:58:06.663Z,1.63
2023-03-17T08:00:34.885Z,1.98
2023-03-17T08:03:10.277Z,1.75
2023-03-17T08:05:38.271Z,2.65
2023-03-17T08:08:06.964Z,2.22
2023-03-17T08:10:34.723Z,2.13
2023-03-17T08:13:02.378Z,2.58
2023-03-17T08:15:31.495Z,2.15
2023-03-17T08:17:58.757Z,2.20
2023-03-17T08:20:25.971Z,2.05
2023-03-17T08:22:53.172Z,2.28
2023-03-17T08:25:20.350Z,2.08
2023-03-17T08:27:47.616Z,2.42
2023-03-17T08:30:16.662Z,2.35
2023-03-17T08:32:44.572Z,2.67
2023-03-17T08:35:16.204Z,2.25
2023-03-17T08:37:45.237Z,2.17
2023-03-17T08:40:17.215Z,1.90
2023-03-17T08:42:48.951Z,2.05
2023-03-17T08:45:18.536Z,1.77
2023-03-17T08:47:47.092Z,1.83
2023-03-17T08:50:23.458Z,1.80
2023-03-17T08:52:52.105Z,1.70
2023-03-17T08:55:19.757Z,2.28
2023-03-17T08:57:47.528Z,2.00
2023-03-17T09:00:20.584Z,1.90
2023-03-17T09:02:48.445Z,2.45
2023-03-17T09:05:17.749Z,1.80
2023-03-17T09:07:45.104Z,2.42
2023-03-17T09:10:13.944Z,2.35
2023-03-17T09:12:41.780Z,1.60
2023-03-17T09:15:09.647Z,1.88
2023-03-17T09:17:36.844Z,2.35
2023-03-17T09:20:06.586Z,1.77
2023-03-17T09:22:33.890Z,2.17
2023-03-17T09:25:01.046Z,1.92
2023-03-17T09:27:28.302Z,2.40
2023-03-17T09:29:56.313Z,2.00
2023-03-17T09:32:23.645Z,2.13
2023-03-17T09:34:51.738Z,2.67
2023-03-17T09:37:19.013Z,2.42
2023-03-17T09:39:46.556Z,2.33
2023-03-17T09:42:42.398Z,2.20
2023-03-17T09:45:31.346Z,2.80
2023-03-17T09:48:13.207Z,2.30
2023-03-17T09:50:57.860Z,2.55
2023-03-17T09:53:34.859Z,2.00
2023-03-17T09:56:23.661Z,2.60
2023-03-17T09:59:08.818Z,2.28
2023-03-17T10:01:37.481Z,2.40
2023-03-17T10:04:05.348Z,2.08
2023-03-17T10:06:40.835Z,2.47
2023-03-17T10:09:38.125Z,2.13
2023-03-17T10:12:11.480Z,2.30
2023-03-17T10:17:32.782Z,2.30
2023-03-17T10:20:13.809Z,2.08
2023-03-17T10:22:53.865Z,1.98
2023-03-17T10:25:34.377Z,3.05
2023-03-17T10:28:16.785Z,2.45
2023-03-17T10:30:44.264Z,2.05
2023-03-17T10:33:12.969Z,2.22
2023-03-17T10:35:40.801Z,1.98
2023-03-17T10:38:20.179Z,2.10
2023-03-17T10:40:58.477Z,2.28
2023-03-17T10:43:30.540Z,1.70
2023-03-17T10:46:03.860Z,2.20
2023-03-17T10:50:59.834Z,2.28
2023-03-17T10:53:28.630Z,2.22
2023-03-17T10:56:09.014Z,2.15
2023-03-17T10:58:49.316Z,2.40
2023-03-17T11:01:29.748Z,2.17
2023-03-17T11:03:58.017Z,2.33
2023-03-17T11:06:38.138Z,2.15
2023-03-17T11:09:10.514Z,2.25
2023-03-17T11:11:49.300Z,2.23
2023-03-17T11:14:19.282Z,2.47
2023-03-17T11:16:55.118Z,2.28
2023-03-17T11:19:44.483Z,2.17
2023-03-17T11:22:18.251Z,2.45
2023-03-17T11:25:11.857Z,2.85
2023-03-17T11:27:59.362Z,2.17
2023-03-17T11:30:48.116Z,2.30
2023-03-17T11:33:36.450Z,2.10
2023-03-17T11:36:18.743Z,2.33
2023-03-17T11:38:55.027Z,2.30
2023-03-17T11:41:41.934Z,2.45
2023-03-17T11:44:47.709Z,2.15
2023-03-17T11:47:36.635Z,2.60
2023-03-17T11:50:20.187Z,2.28
2023-03-17T11:52:56.656Z,2.45
2023-03-17T11:55:36.596Z,2.45
2023-03-17T11:58:10.787Z,1.90
2023-03-17T12:00:46.132Z,2.00
2023-03-17T12:03:23.514Z,2.17
2023-03-17T12:05:56.433Z,1.98
2023-03-17T12:08:56.672Z,2.45
2023-03-17T12:11:29.237Z,2.22
2023-03-17T12:14:28.114Z,2.75
2023-03-17T12:17:01.534Z,2.80
2023-03-17T12:19:39.295Z,2.15
2023-03-17T12:22:14.316Z,2.70
2023-03-17T12:25:16.708Z,2.22
2023-03-17T12:28:11.333Z,2.47
2023-03-17T12:31:06.008Z,2.03
2023-03-17T12:34:10.455Z,2.53
2023-03-17T12:36:40.623Z,2.55
2023-03-17T12:39:12.776Z,2.70
2023-03-17T12:42:01.998Z,2.25
2023-03-17T12:44:46.627Z,3.15
2023-03-17T12:47:51.542Z,2.30
2023-03-17T12:50:37.318Z,2.28
2023-03-17T12:53:12.709Z,2.65
2023-03-17T12:55:42.431Z,2.17
2023-03-17T12:58:33.872Z,2.40
2023-03-17T13:01:30.140Z,2.40
2023-03-17T13:04:04.482Z,2.28
2023-03-17T13:06:40.074Z,2.60
2023-03-17T13:09:34.297Z,2.10
2023-03-17T13:12:03.759Z,2.00
2023-03-17T13:14:43.933Z,2.65
2023-03-17T13:17:17.859Z,2.75
2023-03-17T13:20:08.709Z,2.33
2023-03-17T13:22:59.024Z,2.50
2023-03-17T13:25:36.768Z,2.40
2023-03-17T13:28:13.064Z,2.65
2023-03-17T13:30:40.194Z,3.00
2023-03-17T13:33:10.616Z,2.25
2023-03-17T13:35:46.868Z,2.45
2023-03-17T13:38:33.364Z,2.20
2023-03-17T13:41:17.035Z,2.42
2023-03-17T13:43:53.011Z,2.20
2023-03-17T13:46:47.484Z,2.22
2023-03-17T13:49:26.830Z,1.65
2023-03-17T13:52:15.298Z,1.85
2023-03-17T13:54:49.185Z,1.88
2023-03-17T13:57:24.499Z,2.10
2023-03-17T13:59:51.600Z,2.42
2023-03-17T14:02:21.761Z,2.40
2023-03-17T14:05:06.461Z,2.42
2023-03-17T14:08:21.866Z,2.03
2023-03-17T14:10:57.440Z,1.90
2023-03-17T14:13:42.326Z,2.20
2023-03-17T14:16:17.054Z,2.33
2023-03-17T14:18:56.410Z,2.50
2023-03-17T14:21:33.887Z,2.10
2023-03-17T14:24:06.783Z,2.53
2023-03-17T14:26:34.308Z,2.00
2023-03-17T14:29:04.025Z,2.03
2023-03-17T14:31:31.916Z,1.90
2023-03-17T14:34:00.787Z,1.92
2023-03-17T14:36:32.521Z,1.77
2023-03-17T14:38:59.755Z,1.80
2023-03-17T14:41:29.190Z,2.00
2023-03-17T14:44:01.719Z,1.92
2023-03-17T14:46:35.658Z,1.67
2023-03-17T14:49:21.776Z,2.42
2023-03-17T14:51:53.655Z,2.35
2023-03-17T14:54:24.438Z,2.00
2023-03-17T14:57:02.451Z,2.20
2023-03-17T14:59:34.323Z,2.00
2023-03-17T15:02:21.709Z,2.08
2023-03-17T15:04:58.847Z,1.90
2023-03-17T15:07:46.458Z,1.73
2023-03-17T15:10:19.904Z,1.63
2023-03-17T15:12:48.748Z,1.48
2023-03-17T15:15:22.184Z,1.67
2023-03-17T15:17:56.316Z,1.40
2023-03-17T15:20:24.202Z,1.33
2023-03-17T15:23:00.222Z,1.10
2023-03-17T15:25:43.130Z,1.23
2023-03-17T15:28:15.627Z,1.30
2023-03-17T15:30:47.632Z,1.50
2023-03-17T15:33:22.593Z,1.00
2023-03-17T15:35:50.849Z,0.80
2023-03-17T15:38:18.181Z,0.98
2023-03-17T15:40:45.852Z,0.70
2023-03-17T15:43:17.585Z,1.00
2023-03-17T15:45:46.265Z,0.95
2023-03-17T15:48:24.460Z,0.70
2023-03-17T15:50:53.012Z,0.90
2023-03-17T15:53:20.306Z,1.13
2023-03-17T15:55:49.656Z,0.75
2023-03-17T15:58:17.204Z,1.00
2023-03-17T16:00:47.483Z,0.70
2023-03-17T16:03:45.636Z,0.90
2023-03-17T16:06:17.163Z,0.70
2023-03-17T16:08:44.686Z,1.00
2023-03-17T16:11:18.002Z,0.90
2023-03-17T16:13:46.650Z,0.77
2023-03-17T16:16:38.528Z,0.68
2023-03-17T16:19:10.597Z,0.70
2023-03-17T16:21:37.788Z,1.00
2023-03-17T16:24:06.439Z,0.98
2023-03-17T16:26:34.507Z,1.10
2023-03-17T16:29:01.676Z,1.10
2023-03-17T16:31:32.097Z,1.30
2023-03-17T16:33:59.615Z,1.95
2023-03-17T16:36:27.374Z,1.67
2023-03-17T16:38:54.790Z,1.85
2023-03-17T16:41:27.848Z,1.60
2023-03-17T16:46:34.323Z,1.48
2023-03-17T16:49:02.263Z,1.80
2023-03-17T16:51:29.316Z,1.50
2023-03-17T16:53:56.567Z,1.75
2023-03-17T16:56:25.607Z,1.70
2023-03-17T16:58:53.055Z,1.55
2023-03-17T17:01:24.054Z,2.65
2023-03-17T17:03:54.130Z,1.65
2023-03-17T17:06:23.418Z,1.85
2023-03-17T17:08:52.011Z,1.65
2023-03-17T17:11:20.207Z,1.27
2023-03-17T17:13:50.439Z,1.60
2023-03-17T17:16:27.084Z,1.38
2023-03-17T17:18:54.852Z,1.50
2023-03-17T17:21:22.752Z,4.68
2023-03-17T17:23:52.699Z,15.18
2023-03-17T17:26:24.823Z,11.18
2023-03-17T17:28:53.268Z,7.45
2023-03-17T17:31:20.781Z,4.88
2023-03-17T17:33:48.527Z,3.63
2023-03-17T17:36:17.546Z,4.13
2023-03-17T17:38:45.708Z,3.40
2023-03-17T17:41:13.954Z,3.15
2023-03-17T17:43:41.444Z,1.88
2023-03-17T17:46:15.810Z,1.42
2023-03-17T17:48:43.550Z,2.38
2023-03-17T17:51:10.789Z,1.58
2023-03-17T17:53:37.969Z,1.55
2023-03-17T17:56:17.535Z,1.65
2023-03-17T17:58:46.201Z,1.58
2023-03-17T18:01:20.237Z,1.80
2023-03-17T18:03:47.711Z,2.28
2023-03-17T18:06:16.018Z,2.33
2023-03-17T18:08:43.874Z,2.38
2023-03-17T18:11:11.031Z,2.00
2023-03-17T18:13:39.245Z,2.50
2023-03-17T18:16:10.285Z,2.13
2023-03-17T18:18:40.889Z,1.90
2023-03-17T18:21:08.436Z,1.70
2023-03-17T18:23:36.782Z,2.30
2023-03-17T18:26:06.223Z,2.00
2023-03-17T18:28:34.224Z,2.00
2023-03-17T18:31:18.353Z,1.88
2023-03-17T18:33:47.683Z,1.90
2023-03-17T18:36:14.940Z,1.60
2023-03-17T18:38:42.284Z,1.92
2023-03-17T18:41:11.333Z,2.38
2023-03-17T18:43:39.479Z,1.95
2023-03-17T18:46:09.037Z,2.08
2023-03-17T18:48:37.060Z,1.92
2023-03-17T18:51:04.379Z,2.00
2023-03-17T18:53:34.245Z,2.13
2023-03-17T18:56:02.282Z,2.40
2023-03-17T18:58:29.517Z,2.40
2023-03-17T19:01:02.225Z,2.35
2023-03-17T19:03:32.873Z,2.28
2023-03-17T19:06:14.038Z,2.25
2023-03-17T19:08:42.224Z,2.75
2023-03-17T19:11:12.120Z,2.90
2023-03-17T19:13:39.557Z,3.20
2023-03-17T19:16:11.136Z,2.50
2023-03-17T19:18:42.858Z,2.80
2023-03-17T19:21:14.431Z,3.25
2023-03-17T19:23:42.353Z,2.28
2023-03-17T19:26:10.913Z,2.60
2023-03-17T19:28:38.587Z,2.85
2023-03-17T19:31:06.515Z,3.28
2023-03-17T19:33:33.785Z,3.15
2023-03-17T19:36:08.753Z,3.38
2023-03-17T19:38:36.644Z,3.78
2023-03-17T19:41:04.994Z,3.15
2023-03-17T19:43:40.267Z,3.67
2023-03-17T19:46:09.152Z,3.75
2023-03-17T19:48:37.726Z,3.80
2023-03-17T19:51:05.576Z,3.78
2023-03-17T19:53:32.993Z,3.53
2023-03-17T19:56:00.558Z,3.47
2023-03-17T19:58:28.209Z,3.38
2023-03-17T20:00:56.311Z,3.42
2023-03-17T20:03:26.191Z,3.22
2023-03-17T20:05:53.984Z,7.10
2023-03-17T20:08:22.753Z,5.97
2023-03-17T20:10:56.192Z,4.50
2023-03-17T20:13:23.891Z,4.60
2023-03-17T20:15:55.891Z,2.75
2023-03-17T20:18:24.343Z,3.08
2023-03-17T20:20:54.294Z,3.40
2023-03-17T20:23:23.133Z,3.65
2023-03-17T20:25:52.614Z,4.07
2023-03-17T20:28:21.702Z,6.40
2023-03-17T20:30:51.131Z,14.50
2023-03-17T20:33:19.308Z,13.52
2023-03-17T20:35:48.685Z,8.13
2023-03-17T20:38:16.506Z,4.75
2023-03-17T20:40:44.214Z,3.53
2023-03-17T20:43:11.530Z,2.95
2023-03-17T20:45:39.558Z,5.00
2023-03-17T20:48:10.815Z,4.45
2023-03-17T20:50:42.615Z,3.92
2023-03-17T20:53:10.597Z,3.30
2023-03-17T20:55:37.931Z,3.10
2023-03-17T20:58:06.248Z,2.70
2023-03-17T21:00:33.817Z,2.80
2023-03-17T21:03:01.622Z,3.17
2023-03-17T21:05:30.034Z,5.30
2023-03-17T21:07:58.245Z,4.05
2023-03-17T21:10:25.701Z,6.20
2023-03-17T21:12:52.929Z,5.35
2023-03-17T21:15:20.226Z,2.83
2023-03-17T21:17:47.438Z,3.00
2023-03-17T21:20:14.950Z,2.63
2023-03-17T21:22:42.291Z,3.28
2023-03-17T21:25:11.154Z,4.03
2023-03-17T21:27:39.993Z,3.10
2023-03-17T21:30:12.719Z,3.00
2023-03-17T21:32:40.989Z,2.75
2023-03-17T21:35:08.835Z,2.60
2023-03-17T21:37:42.108Z,2.50
2023-03-17T21:40:16.047Z,3.10
2023-03-17T21:42:44.084Z,3.00
2023-03-17T21:45:11.731Z,2.55
2023-03-17T21:47:41.394Z,2.30
2023-03-17T21:50:09.460Z,2.15
2023-03-17T21:52:37.407Z,2.17
2023-03-17T21:55:07.629Z,4.05
2023-03-17T21:57:35.074Z,3.22
2023-03-17T22:00:02.454Z,3.33
2023-03-17T22:02:53.736Z,3.20
2023-03-17T22:05:21.485Z,2.88
2023-03-17T22:07:50.551Z,2.75
2023-03-17T22:10:23.143Z,2.88
2023-03-17T22:12:52.663Z,3.38
2023-03-17T22:15:20.084Z,3.55
2023-03-17T22:17:47.505Z,2.85
2023-03-17T22:20:15.466Z,2.95
2023-03-17T22:22:43.042Z,5.70
2023-03-17T22:25:10.292Z,8.00
2023-03-17T22:27:37.840Z,6.28
2023-03-17T22:30:05.485Z,3.38
2023-03-17T22:32:32.926Z,2.50
2023-03-17T22:35:00.389Z,1.90
2023-03-17T22:37:28.635Z,1.90
2023-03-17T22:39:56.140Z,1.77
2023-03-17T22:42:23.680Z,1.80
2023-03-17T22:44:51.399Z,1.85
2023-03-17T22:47:19.347Z,2.00
2023-03-17T22:49:47.277Z,2.47
2023-03-17T22:52:15.100Z,2.50
2023-03-17T22:54:42.570Z,2.20
2023-03-17T22:57:15.272Z,2.10
2023-03-17T22:59:45.282Z,2.33
2023-03-17T23:02:18.621Z,2.22
2023-03-17T23:04:46.155Z,2.40
2023-03-17T23:07:53.053Z,2.67
2023-03-17T23:10:23.504Z,2.25
2023-03-17T23:12:54.091Z,2.03
2023-03-17T23:15:21.910Z,2.30
2023-03-17T23:17:50.222Z,1.90
2023-03-17T23:20:19.449Z,1.83
2023-03-17T23:22:47.368Z,2.03
2023-03-17T23:25:17.030Z,2.30
2023-03-17T23:27:45.190Z,2.20
2023-03-17T23:30:13.228Z,1.88
2023-03-17T23:32:42.018Z,1.90
2023-03-17T23:35:11.061Z,1.42
2023-03-17T23:37:38.441Z,2.00
2023-03-17T23:40:06.973Z,2.13
2023-03-17T23:42:34.242Z,1.50
2023-03-17T23:45:02.278Z,1.75
2023-03-17T23:47:29.692Z,1.88
2023-03-17T23:49:57.436Z,2.10
2023-03-17T23:52:24.805Z,2.70
2023-03-17T23:54:52.462Z,4.88
2023-03-17T23:57:19.795Z,7.80
2023-03-17T23:59:50.136Z,7.13
